sensor_id;sensor_type;location;lat;lon;timestamp;P1;durP1;ratioP1;P2;durP2;ratioP2
77350;SDS011;66420;50.246;14.320;2023-06-10T00:02:06;12.95;;;7.40;;
77350;SDS011;66420;50.246;14.320;2023-06-10T00:04:52;11.85;;;6.68;;
77350;SDS011;66420;50.246;14.320;2023-06-10T00:07:37;11.88;;;7.28;;
77350;SDS011;66420;50.246;14.320;2023-06-10T00:10:25;9.85;;;6.53;;
77350;SDS011;66420;50.246;14.320;2023-06-10T00:13:10;10.20;;;6.20;;
77350;SDS011;66420;50.246;14.320;2023-06-10T00:15:55;9.73;;;6.88;;
77350;SDS011;66420;50.246;14.320;2023-06-10T00:18:39;9.80;;;6.18;;
77350;SDS011;66420;50.246;14.320;2023-06-10T00:21:24;10.50;;;7.30;;
77350;SDS011;66420;50.246;14.320;2023-06-10T00:24:10;10.68;;;7.13;;
77350;SDS011;66420;50.246;14.320;2023-06-10T00:26:58;11.80;;;6.40;;
77350;SDS011;66420;50.246;14.320;2023-06-10T00:29:43;16.42;;;7.00;;
77350;SDS011;66420;50.246;14.320;2023-06-10T00:32:28;12.00;;;8.20;;
77350;SDS011;66420;50.246;14.320;2023-06-10T00:35:12;11.20;;;7.30;;
77350;SDS011;66420;50.246;14.320;2023-06-10T00:37:57;9.65;;;5.97;;
77350;SDS011;66420;50.246;14.320;2023-06-10T00:40:42;10.70;;;6.63;;
77350;SDS011;66420;50.246;14.320;2023-06-10T00:43:26;11.10;;;6.78;;
77350;SDS011;66420;50.246;14.320;2023-06-10T00:46:11;10.30;;;7.13;;
77350;SDS011;66420;50.246;14.320;2023-06-10T00:48:57;12.35;;;6.75;;
77350;SDS011;66420;50.246;14.320;2023-06-10T00:51:42;13.05;;;7.22;;
77350;SDS011;66420;50.246;14.320;2023-06-10T00:54:27;12.52;;;6.70;;
77350;SDS011;66420;50.246;14.320;2023-06-10T00:57:12;12.00;;;6.63;;
77350;SDS011;66420;50.246;14.320;2023-06-10T00:59:58;10.40;;;6.28;;
77350;SDS011;66420;50.246;14.320;2023-06-10T01:02:43;12.80;;;7.25;;
77350;SDS011;66420;50.246;14.320;2023-06-10T01:05:27;12.48;;;6.72;;
77350;SDS011;66420;50.246;14.320;2023-06-10T01:08:15;11.60;;;6.57;;
77350;SDS011;66420;50.246;14.320;2023-06-10T01:11:13;11.75;;;7.15;;
77350;SDS011;66420;50.246;14.320;2023-06-10T01:14:05;10.70;;;7.47;;
77350;SDS011;66420;50.246;14.320;2023-06-10T01:16:52;11.73;;;6.45;;
77350;SDS011;66420;50.246;14.320;2023-06-10T01:19:37;14.15;;;7.53;;
77350;SDS011;66420;50.246;14.320;2023-06-10T01:22:26;12.35;;;6.75;;
77350;SDS011;66420;50.246;14.320;2023-06-10T01:25:16;10.85;;;6.63;;
77350;SDS011;66420;50.246;14.320;2023-06-10T01:34:21;10.45;;;7.10;;
77350;SDS011;66420;50.246;14.320;2023-06-10T01:37:09;10.32;;;6.82;;
77350;SDS011;66420;50.246;14.320;2023-06-10T01:39:57;9.45;;;6.85;;
77350;SDS011;66420;50.246;14.320;2023-06-10T01:42:43;10.95;;;6.15;;
77350;SDS011;66420;50.246;14.320;2023-06-10T01:45:27;9.13;;;6.20;;
77350;SDS011;66420;50.246;14.320;2023-06-10T01:48:12;10.20;;;7.53;;
77350;SDS011;66420;50.246;14.320;2023-06-10T01:50:57;10.43;;;7.05;;
77350;SDS011;66420;50.246;14.320;2023-06-10T01:53:42;9.95;;;6.78;;
77350;SDS011;66420;50.246;14.320;2023-06-10T01:56:27;12.80;;;6.93;;
77350;SDS011;66420;50.246;14.320;2023-06-10T01:59:13;11.27;;;7.07;;
77350;SDS011;66420;50.246;14.320;2023-06-10T02:01:57;10.27;;;6.30;;
77350;SDS011;66420;50.246;14.320;2023-06-10T02:04:43;10.05;;;6.72;;
77350;SDS011;66420;50.246;14.320;2023-06-10T02:07:27;9.13;;;6.20;;
77350;SDS011;66420;50.246;14.320;2023-06-10T02:10:12;12.35;;;6.38;;
77350;SDS011;66420;50.246;14.320;2023-06-10T02:12:57;17.42;;;7.43;;
77350;SDS011;66420;50.246;14.320;2023-06-10T02:15:41;10.45;;;6.53;;
77350;SDS011;66420;50.246;14.320;2023-06-10T02:18:26;9.65;;;6.30;;
77350;SDS011;66420;50.246;14.320;2023-06-10T02:21:12;12.32;;;6.57;;
77350;SDS011;66420;50.246;14.320;2023-06-10T02:23:57;11.55;;;6.95;;
77350;SDS011;66420;50.246;14.320;2023-06-10T02:26:42;15.00;;;7.05;;
77350;SDS011;66420;50.246;14.320;2023-06-10T02:29:26;12.23;;;7.20;;
77350;SDS011;66420;50.246;14.320;2023-06-10T02:32:11;10.50;;;6.47;;
77350;SDS011;66420;50.246;14.320;2023-06-10T02:34:55;13.60;;;7.35;;
77350;SDS011;66420;50.246;14.320;2023-06-10T02:37:42;10.88;;;6.97;;
77350;SDS011;66420;50.246;14.320;2023-06-10T02:40:27;9.27;;;6.47;;
77350;SDS011;66420;50.246;14.320;2023-06-10T02:43:12;13.38;;;7.97;;
77350;SDS011;66420;50.246;14.320;2023-06-10T02:45:56;13.82;;;7.82;;
77350;SDS011;66420;50.246;14.320;2023-06-10T02:48:41;10.15;;;6.97;;
77350;SDS011;66420;50.246;14.320;2023-06-10T02:51:28;14.13;;;7.28;;
77350;SDS011;66420;50.246;14.320;2023-06-10T02:54:12;10.15;;;5.78;;
77350;SDS011;66420;50.246;14.320;2023-06-10T02:56:57;12.43;;;6.82;;
77350;SDS011;66420;50.246;14.320;2023-06-10T02:59:41;10.07;;;6.68;;
77350;SDS011;66420;50.246;14.320;2023-06-10T03:02:26;12.30;;;6.45;;
77350;SDS011;66420;50.246;14.320;2023-06-10T03:05:12;12.10;;;7.13;;
77350;SDS011;66420;50.246;14.320;2023-06-10T03:07:57;12.40;;;7.22;;
77350;SDS011;66420;50.246;14.320;2023-06-10T03:10:42;10.50;;;6.97;;
77350;SDS011;66420;50.246;14.320;2023-06-10T03:13:26;16.25;;;8.65;;
77350;SDS011;66420;50.246;14.320;2023-06-10T03:16:11;15.02;;;8.20;;
77350;SDS011;66420;50.246;14.320;2023-06-10T03:18:56;12.77;;;7.78;;
77350;SDS011;66420;50.246;14.320;2023-06-10T03:21:43;13.32;;;8.45;;
77350;SDS011;66420;50.246;14.320;2023-06-10T03:24:28;14.60;;;7.97;;
77350;SDS011;66420;50.246;14.320;2023-06-10T03:27:12;13.63;;;7.70;;
77350;SDS011;66420;50.246;14.320;2023-06-10T03:29:57;13.05;;;8.48;;
77350;SDS011;66420;50.246;14.320;2023-06-10T03:32:41;15.73;;;9.25;;
77350;SDS011;66420;50.246;14.320;2023-06-10T03:35:27;13.82;;;8.57;;
77350;SDS011;66420;50.246;14.320;2023-06-10T03:38:12;17.60;;;8.80;;
77350;SDS011;66420;50.246;14.320;2023-06-10T03:40:56;16.90;;;9.25;;
77350;SDS011;66420;50.246;14.320;2023-06-10T03:43:41;13.85;;;7.45;;
77350;SDS011;66420;50.246;14.320;2023-06-10T03:46:26;14.52;;;9.07;;
77350;SDS011;66420;50.246;14.320;2023-06-10T03:49:11;14.07;;;8.95;;
77350;SDS011;66420;50.246;14.320;2023-06-10T03:51:56;15.60;;;8.95;;
77350;SDS011;66420;50.246;14.320;2023-06-10T03:54:41;17.35;;;8.98;;
77350;SDS011;66420;50.246;14.320;2023-06-10T03:57:25;13.32;;;8.65;;
77350;SDS011;66420;50.246;14.320;2023-06-10T04:00:10;13.93;;;7.97;;
77350;SDS011;66420;50.246;14.320;2023-06-10T04:02:56;12.20;;;8.02;;
77350;SDS011;66420;50.246;14.320;2023-06-10T04:05:42;16.05;;;9.43;;
77350;SDS011;66420;50.246;14.320;2023-06-10T04:08:26;14.77;;;8.82;;
77350;SDS011;66420;50.246;14.320;2023-06-10T04:11:12;16.77;;;8.98;;
77350;SDS011;66420;50.246;14.320;2023-06-10T04:13:56;13.00;;;8.15;;
77350;SDS011;66420;50.246;14.320;2023-06-10T04:16:41;12.10;;;8.18;;
77350;SDS011;66420;50.246;14.320;2023-06-10T04:19:27;12.15;;;8.10;;
77350;SDS011;66420;50.246;14.320;2023-06-10T04:22:12;14.25;;;9.15;;
77350;SDS011;66420;50.246;14.320;2023-06-10T04:24:57;14.00;;;8.73;;
77350;SDS011;66420;50.246;14.320;2023-06-10T04:27:43;15.35;;;9.45;;
77350;SDS011;66420;50.246;14.320;2023-06-10T04:30:28;16.70;;;9.45;;
77350;SDS011;66420;50.246;14.320;2023-06-10T04:33:13;14.90;;;8.48;;
77350;SDS011;66420;50.246;14.320;2023-06-10T04:35:58;16.20;;;9.98;;
77350;SDS011;66420;50.246;14.320;2023-06-10T04:38:43;12.95;;;8.57;;
77350;SDS011;66420;50.246;14.320;2023-06-10T04:41:27;16.98;;;10.48;;
77350;SDS011;66420;50.246;14.320;2023-06-10T04:44:12;16.58;;;9.57;;
77350;SDS011;66420;50.246;14.320;2023-06-10T04:46:57;18.85;;;9.85;;
77350;SDS011;66420;50.246;14.320;2023-06-10T04:49:42;15.98;;;10.35;;
77350;SDS011;66420;50.246;14.320;2023-06-10T04:52:27;16.50;;;9.35;;
77350;SDS011;66420;50.246;14.320;2023-06-10T04:55:15;17.77;;;9.20;;
77350;SDS011;66420;50.246;14.320;2023-06-10T04:58:00;16.17;;;10.07;;
77350;SDS011;66420;50.246;14.320;2023-06-10T05:00:44;22.17;;;9.75;;
77350;SDS011;66420;50.246;14.320;2023-06-10T05:03:29;14.95;;;9.85;;
77350;SDS011;66420;50.246;14.320;2023-06-10T05:06:14;17.73;;;10.73;;
77350;SDS011;66420;50.246;14.320;2023-06-10T05:08:59;18.52;;;9.45;;
77350;SDS011;66420;50.246;14.320;2023-06-10T05:11:44;16.80;;;9.65;;
77350;SDS011;66420;50.246;14.320;2023-06-10T05:14:29;17.40;;;10.10;;
77350;SDS011;66420;50.246;14.320;2023-06-10T05:17:14;20.40;;;12.32;;
77350;SDS011;66420;50.246;14.320;2023-06-10T05:19:58;15.23;;;9.70;;
77350;SDS011;66420;50.246;14.320;2023-06-10T05:22:44;19.58;;;12.00;;
77350;SDS011;66420;50.246;14.320;2023-06-10T05:25:32;16.48;;;10.40;;
77350;SDS011;66420;50.246;14.320;2023-06-10T05:28:17;18.80;;;9.85;;
77350;SDS011;66420;50.246;14.320;2023-06-10T05:31:02;13.40;;;8.88;;
77350;SDS011;66420;50.246;14.320;2023-06-10T05:33:47;17.77;;;10.45;;
77350;SDS011;66420;50.246;14.320;2023-06-10T05:36:32;14.93;;;9.90;;
77350;SDS011;66420;50.246;14.320;2023-06-10T05:39:17;14.63;;;8.82;;
77350;SDS011;66420;50.246;14.320;2023-06-10T05:42:02;15.32;;;10.13;;
77350;SDS011;66420;50.246;14.320;2023-06-10T05:44:47;12.73;;;8.43;;
77350;SDS011;66420;50.246;14.320;2023-06-10T05:47:32;18.17;;;11.63;;
77350;SDS011;66420;50.246;14.320;2023-06-10T05:50:17;24.45;;;13.23;;
77350;SDS011;66420;50.246;14.320;2023-06-10T05:53:02;29.73;;;16.08;;
77350;SDS011;66420;50.246;14.320;2023-06-10T05:55:47;27.80;;;16.08;;
77350;SDS011;66420;50.246;14.320;2023-06-10T05:58:33;27.73;;;17.25;;
77350;SDS011;66420;50.246;14.320;2023-06-10T06:01:17;32.63;;;18.33;;
77350;SDS011;66420;50.246;14.320;2023-06-10T06:04:02;23.45;;;15.45;;
77350;SDS011;66420;50.246;14.320;2023-06-10T06:06:48;24.70;;;14.75;;
77350;SDS011;66420;50.246;14.320;2023-06-10T06:09:32;22.55;;;14.38;;
77350;SDS011;66420;50.246;14.320;2023-06-10T06:12:17;19.65;;;12.65;;
77350;SDS011;66420;50.246;14.320;2023-06-10T06:15:01;19.40;;;12.70;;
77350;SDS011;66420;50.246;14.320;2023-06-10T06:17:47;21.92;;;13.02;;
77350;SDS011;66420;50.246;14.320;2023-06-10T06:20:31;18.48;;;11.00;;
77350;SDS011;66420;50.246;14.320;2023-06-10T06:23:16;16.25;;;10.82;;
77350;SDS011;66420;50.246;14.320;2023-06-10T06:26:01;17.50;;;11.27;;
77350;SDS011;66420;50.246;14.320;2023-06-10T06:28:46;14.18;;;9.52;;
77350;SDS011;66420;50.246;14.320;2023-06-10T06:31:32;11.77;;;8.18;;
77350;SDS011;66420;50.246;14.320;2023-06-10T06:34:16;13.85;;;8.35;;
77350;SDS011;66420;50.246;14.320;2023-06-10T06:37:00;13.07;;;8.25;;
77350;SDS011;66420;50.246;14.320;2023-06-10T06:39:46;11.55;;;8.15;;
77350;SDS011;66420;50.246;14.320;2023-06-10T06:42:30;13.50;;;8.63;;
77350;SDS011;66420;50.246;14.320;2023-06-10T06:45:15;13.20;;;9.27;;
77350;SDS011;66420;50.246;14.320;2023-06-10T06:48:00;11.27;;;8.38;;
77350;SDS011;66420;50.246;14.320;2023-06-10T06:50:45;12.85;;;9.65;;
77350;SDS011;66420;50.246;14.320;2023-06-10T06:53:30;13.43;;;9.00;;
77350;SDS011;66420;50.246;14.320;2023-06-10T06:56:15;12.07;;;8.60;;
77350;SDS011;66420;50.246;14.320;2023-06-10T06:59:00;13.00;;;9.20;;
77350;SDS011;66420;50.246;14.320;2023-06-10T07:01:45;14.27;;;9.02;;
77350;SDS011;66420;50.246;14.320;2023-06-10T07:04:30;12.77;;;9.07;;
77350;SDS011;66420;50.246;14.320;2023-06-10T07:07:15;14.70;;;9.07;;
77350;SDS011;66420;50.246;14.320;2023-06-10T07:10:00;11.57;;;7.95;;
77350;SDS011;66420;50.246;14.320;2023-06-10T07:12:45;9.43;;;7.05;;
77350;SDS011;66420;50.246;14.320;2023-06-10T07:15:30;10.43;;;6.68;;
77350;SDS011;66420;50.246;14.320;2023-06-10T07:18:15;8.15;;;5.80;;
77350;SDS011;66420;50.246;14.320;2023-06-10T07:21:01;8.57;;;5.50;;
77350;SDS011;66420;50.246;14.320;2023-06-10T07:23:46;9.63;;;5.57;;
77350;SDS011;66420;50.246;14.320;2023-06-10T07:26:31;8.35;;;6.50;;
77350;SDS011;66420;50.246;14.320;2023-06-10T07:29:16;9.73;;;5.88;;
77350;SDS011;66420;50.246;14.320;2023-06-10T07:32:03;10.43;;;6.15;;
77350;SDS011;66420;50.246;14.320;2023-06-10T07:34:48;7.10;;;5.53;;
77350;SDS011;66420;50.246;14.320;2023-06-10T07:37:32;10.98;;;5.97;;
77350;SDS011;66420;50.246;14.320;2023-06-10T07:40:17;9.35;;;5.22;;
77350;SDS011;66420;50.246;14.320;2023-06-10T07:43:02;15.45;;;6.10;;
77350;SDS011;66420;50.246;14.320;2023-06-10T07:45:47;7.40;;;5.68;;
77350;SDS011;66420;50.246;14.320;2023-06-10T07:48:32;9.02;;;5.65;;
77350;SDS011;66420;50.246;14.320;2023-06-10T07:51:17;8.55;;;6.28;;
77350;SDS011;66420;50.246;14.320;2023-06-10T07:54:02;7.15;;;5.68;;
77350;SDS011;66420;50.246;14.320;2023-06-10T07:56:47;7.40;;;5.28;;
77350;SDS011;66420;50.246;14.320;2023-06-10T07:59:31;7.82;;;5.47;;
77350;SDS011;66420;50.246;14.320;2023-06-10T08:02:16;8.52;;;6.22;;
77350;SDS011;66420;50.246;14.320;2023-06-10T08:05:01;9.27;;;5.70;;
77350;SDS011;66420;50.246;14.320;2023-06-10T08:07:46;7.65;;;5.40;;
77350;SDS011;66420;50.246;14.320;2023-06-10T08:10:31;6.90;;;5.25;;
77350;SDS011;66420;50.246;14.320;2023-06-10T08:13:16;6.70;;;4.82;;
77350;SDS011;66420;50.246;14.320;2023-06-10T08:16:00;6.65;;;4.82;;
77350;SDS011;66420;50.246;14.320;2023-06-10T08:18:45;8.68;;;5.55;;
77350;SDS011;66420;50.246;14.320;2023-06-10T08:21:29;6.93;;;5.00;;
77350;SDS011;66420;50.246;14.320;2023-06-10T08:24:14;7.40;;;4.55;;
77350;SDS011;66420;50.246;14.320;2023-06-10T08:27:01;7.03;;;4.80;;
77350;SDS011;66420;50.246;14.320;2023-06-10T08:29:47;6.47;;;4.63;;
77350;SDS011;66420;50.246;14.320;2023-06-10T08:32:31;6.75;;;4.38;;
77350;SDS011;66420;50.246;14.320;2023-06-10T08:35:16;5.40;;;4.30;;
77350;SDS011;66420;50.246;14.320;2023-06-10T08:38:00;6.22;;;4.38;;
77350;SDS011;66420;50.246;14.320;2023-06-10T08:40:45;6.97;;;4.63;;
77350;SDS011;66420;50.246;14.320;2023-06-10T08:43:34;5.57;;;4.45;;
77350;SDS011;66420;50.246;14.320;2023-06-10T08:46:29;7.70;;;4.28;;
77350;SDS011;66420;50.246;14.320;2023-06-10T08:49:18;9.30;;;4.78;;
77350;SDS011;66420;50.246;14.320;2023-06-10T08:52:07;6.32;;;4.40;;
77350;SDS011;66420;50.246;14.320;2023-06-10T08:54:59;7.32;;;4.30;;
77350;SDS011;66420;50.246;14.320;2023-06-10T08:57:46;8.38;;;4.90;;
77350;SDS011;66420;50.246;14.320;2023-06-10T09:00:32;6.57;;;4.80;;
77350;SDS011;66420;50.246;14.320;2023-06-10T09:03:20;6.13;;;4.40;;
77350;SDS011;66420;50.246;14.320;2023-06-10T09:06:05;7.90;;;4.72;;
77350;SDS011;66420;50.246;14.320;2023-06-10T09:08:50;5.20;;;4.70;;
77350;SDS011;66420;50.246;14.320;2023-06-10T09:11:35;6.65;;;4.90;;
77350;SDS011;66420;50.246;14.320;2023-06-10T09:14:22;10.45;;;5.15;;
77350;SDS011;66420;50.246;14.320;2023-06-10T09:17:08;9.02;;;4.90;;
77350;SDS011;66420;50.246;14.320;2023-06-10T09:19:53;6.50;;;4.60;;
77350;SDS011;66420;50.246;14.320;2023-06-10T09:22:40;9.20;;;6.00;;
77350;SDS011;66420;50.246;14.320;2023-06-10T09:25:36;6.35;;;4.95;;
77350;SDS011;66420;50.246;14.320;2023-06-10T09:28:22;6.90;;;4.72;;
77350;SDS011;66420;50.246;14.320;2023-06-10T09:31:06;7.80;;;5.63;;
77350;SDS011;66420;50.246;14.320;2023-06-10T09:33:51;10.93;;;5.50;;
77350;SDS011;66420;50.246;14.320;2023-06-10T09:36:37;7.53;;;5.90;;
77350;SDS011;66420;50.246;14.320;2023-06-10T09:39:22;9.05;;;6.07;;
77350;SDS011;66420;50.246;14.320;2023-06-10T09:42:17;11.23;;;5.65;;
77350;SDS011;66420;50.246;14.320;2023-06-10T09:45:03;9.70;;;6.18;;
77350;SDS011;66420;50.246;14.320;2023-06-10T09:47:51;8.70;;;5.35;;
77350;SDS011;66420;50.246;14.320;2023-06-10T09:50:46;11.10;;;6.18;;
77350;SDS011;66420;50.246;14.320;2023-06-10T09:53:33;7.88;;;6.30;;
77350;SDS011;66420;50.246;14.320;2023-06-10T09:56:18;7.32;;;6.05;;
77350;SDS011;66420;50.246;14.320;2023-06-10T09:59:03;9.60;;;6.45;;
77350;SDS011;66420;50.246;14.320;2023-06-10T10:01:54;8.18;;;6.68;;
77350;SDS011;66420;50.246;14.320;2023-06-10T10:04:39;10.57;;;5.90;;
77350;SDS011;66420;50.246;14.320;2023-06-10T10:07:24;10.40;;;5.85;;
77350;SDS011;66420;50.246;14.320;2023-06-10T10:10:10;10.00;;;6.22;;
77350;SDS011;66420;50.246;14.320;2023-06-10T10:12:56;8.63;;;6.40;;
77350;SDS011;66420;50.246;14.320;2023-06-10T10:15:40;8.43;;;6.72;;
77350;SDS011;66420;50.246;14.320;2023-06-10T10:18:25;10.77;;;5.68;;
77350;SDS011;66420;50.246;14.320;2023-06-10T10:21:15;7.45;;;5.93;;
77350;SDS011;66420;50.246;14.320;2023-06-10T10:24:07;8.18;;;6.43;;
77350;SDS011;66420;50.246;14.320;2023-06-10T10:26:57;10.15;;;5.97;;
77350;SDS011;66420;50.246;14.320;2023-06-10T10:29:45;9.45;;;6.50;;
77350;SDS011;66420;50.246;14.320;2023-06-10T10:32:32;11.10;;;5.85;;
77350;SDS011;66420;50.246;14.320;2023-06-10T10:35:22;8.98;;;6.35;;
77350;SDS011;66420;50.246;14.320;2023-06-10T10:38:07;8.52;;;6.35;;
77350;SDS011;66420;50.246;14.320;2023-06-10T10:40:53;8.38;;;6.10;;
77350;SDS011;66420;50.246;14.320;2023-06-10T10:43:40;10.70;;;5.88;;
77350;SDS011;66420;50.246;14.320;2023-06-10T10:46:26;10.60;;;5.78;;
77350;SDS011;66420;50.246;14.320;2023-06-10T10:49:12;7.15;;;5.00;;
77350;SDS011;66420;50.246;14.320;2023-06-10T10:51:59;7.45;;;5.30;;
77350;SDS011;66420;50.246;14.320;2023-06-10T10:54:49;7.38;;;4.88;;
77350;SDS011;66420;50.246;14.320;2023-06-10T10:57:38;10.88;;;4.47;;
77350;SDS011;66420;50.246;14.320;2023-06-10T11:00:27;8.57;;;4.47;;
77350;SDS011;66420;50.246;14.320;2023-06-10T11:03:16;6.68;;;4.35;;
77350;SDS011;66420;50.246;14.320;2023-06-10T11:06:01;7.18;;;5.13;;
77350;SDS011;66420;50.246;14.320;2023-06-10T11:08:57;7.80;;;4.72;;
77350;SDS011;66420;50.246;14.320;2023-06-10T11:11:50;10.05;;;5.35;;
77350;SDS011;66420;50.246;14.320;2023-06-10T11:14:35;10.07;;;4.68;;
77350;SDS011;66420;50.246;14.320;2023-06-10T11:17:20;7.68;;;4.72;;
77350;SDS011;66420;50.246;14.320;2023-06-10T11:20:05;9.00;;;4.93;;
77350;SDS011;66420;50.246;14.320;2023-06-10T11:22:58;6.78;;;5.57;;
77350;SDS011;66420;50.246;14.320;2023-06-10T11:25:43;9.30;;;5.75;;
77350;SDS011;66420;50.246;14.320;2023-06-10T11:28:27;7.13;;;4.57;;
77350;SDS011;66420;50.246;14.320;2023-06-10T11:31:31;6.35;;;5.10;;
77350;SDS011;66420;50.246;14.320;2023-06-10T11:34:23;10.35;;;6.53;;
77350;SDS011;66420;50.246;14.320;2023-06-10T11:37:11;10.98;;;5.53;;
77350;SDS011;66420;50.246;14.320;2023-06-10T11:39:56;7.70;;;5.07;;
77350;SDS011;66420;50.246;14.320;2023-06-10T11:42:42;8.77;;;5.60;;
77350;SDS011;66420;50.246;14.320;2023-06-10T11:45:27;7.00;;;5.40;;
77350;SDS011;66420;50.246;14.320;2023-06-10T11:48:12;9.77;;;6.20;;
77350;SDS011;66420;50.246;14.320;2023-06-10T11:50:57;8.45;;;5.18;;
77350;SDS011;66420;50.246;14.320;2023-06-10T11:53:45;9.32;;;5.60;;
77350;SDS011;66420;50.246;14.320;2023-06-10T11:56:33;7.30;;;4.80;;
77350;SDS011;66420;50.246;14.320;2023-06-10T11:59:18;7.28;;;5.07;;
77350;SDS011;66420;50.246;14.320;2023-06-10T12:02:03;12.98;;;5.82;;
77350;SDS011;66420;50.246;14.320;2023-06-10T12:04:48;9.30;;;5.40;;
77350;SDS011;66420;50.246;14.320;2023-06-10T12:07:33;9.18;;;5.45;;
77350;SDS011;66420;50.246;14.320;2023-06-10T12:10:18;10.50;;;5.68;;
77350;SDS011;66420;50.246;14.320;2023-06-10T12:13:03;9.38;;;5.78;;
77350;SDS011;66420;50.246;14.320;2023-06-10T12:15:48;11.70;;;5.32;;
77350;SDS011;66420;50.246;14.320;2023-06-10T12:18:33;8.93;;;5.93;;
77350;SDS011;66420;50.246;14.320;2023-06-10T12:21:23;6.90;;;4.70;;
77350;SDS011;66420;50.246;14.320;2023-06-10T12:24:09;8.07;;;5.50;;
77350;SDS011;66420;50.246;14.320;2023-06-10T12:26:55;8.85;;;5.85;;
77350;SDS011;66420;50.246;14.320;2023-06-10T12:29:40;9.48;;;6.10;;
77350;SDS011;66420;50.246;14.320;2023-06-10T12:32:41;10.02;;;5.53;;
77350;SDS011;66420;50.246;14.320;2023-06-10T12:35:27;5.72;;;4.72;;
77350;SDS011;66420;50.246;14.320;2023-06-10T12:38:12;8.95;;;5.80;;
77350;SDS011;66420;50.246;14.320;2023-06-10T12:41:01;9.48;;;5.25;;
77350;SDS011;66420;50.246;14.320;2023-06-10T12:43:49;9.32;;;5.55;;
77350;SDS011;66420;50.246;14.320;2023-06-10T12:46:36;10.90;;;5.43;;
77350;SDS011;66420;50.246;14.320;2023-06-10T12:49:21;8.05;;;5.40;;
77350;SDS011;66420;50.246;14.320;2023-06-10T12:52:06;7.78;;;5.15;;
77350;SDS011;66420;50.246;14.320;2023-06-10T12:54:51;8.13;;;5.32;;
77350;SDS011;66420;50.246;14.320;2023-06-10T12:57:47;6.80;;;4.93;;
77350;SDS011;66420;50.246;14.320;2023-06-10T13:00:32;18.30;;;6.35;;
77350;SDS011;66420;50.246;14.320;2023-06-10T13:03:19;12.65;;;5.88;;
77350;SDS011;66420;50.246;14.320;2023-06-10T13:06:03;15.90;;;6.55;;
77350;SDS011;66420;50.246;14.320;2023-06-10T13:08:50;9.07;;;5.90;;
77350;SDS011;66420;50.246;14.320;2023-06-10T13:11:35;10.65;;;6.40;;
77350;SDS011;66420;50.246;14.320;2023-06-10T13:14:20;11.40;;;6.05;;
77350;SDS011;66420;50.246;14.320;2023-06-10T13:17:05;8.00;;;5.40;;
77350;SDS011;66420;50.246;14.320;2023-06-10T13:19:50;11.32;;;6.03;;
77350;SDS011;66420;50.246;14.320;2023-06-10T13:22:35;8.48;;;5.85;;
77350;SDS011;66420;50.246;14.320;2023-06-10T13:25:21;6.28;;;5.32;;
77350;SDS011;66420;50.246;14.320;2023-06-10T13:28:05;10.18;;;5.13;;
77350;SDS011;66420;50.246;14.320;2023-06-10T13:30:50;9.25;;;5.78;;
77350;SDS011;66420;50.246;14.320;2023-06-10T13:33:35;7.30;;;5.25;;
77350;SDS011;66420;50.246;14.320;2023-06-10T13:36:19;6.72;;;5.13;;
77350;SDS011;66420;50.246;14.320;2023-06-10T13:39:04;9.82;;;5.70;;
77350;SDS011;66420;50.246;14.320;2023-06-10T13:41:48;8.60;;;4.88;;
77350;SDS011;66420;50.246;14.320;2023-06-10T13:44:33;7.38;;;5.25;;
77350;SDS011;66420;50.246;14.320;2023-06-10T13:47:20;5.47;;;4.00;;
77350;SDS011;66420;50.246;14.320;2023-06-10T13:50:05;8.75;;;5.45;;
77350;SDS011;66420;50.246;14.320;2023-06-10T13:52:51;7.43;;;4.60;;
77350;SDS011;66420;50.246;14.320;2023-06-10T13:55:35;6.18;;;4.80;;
77350;SDS011;66420;50.246;14.320;2023-06-10T13:58:20;6.47;;;4.40;;
77350;SDS011;66420;50.246;14.320;2023-06-10T14:01:05;5.72;;;4.45;;
77350;SDS011;66420;50.246;14.320;2023-06-10T14:03:50;8.75;;;4.40;;
77350;SDS011;66420;50.246;14.320;2023-06-10T14:06:35;6.22;;;4.18;;
77350;SDS011;66420;50.246;14.320;2023-06-10T14:09:19;7.20;;;4.50;;
77350;SDS011;66420;50.246;14.320;2023-06-10T14:12:04;6.88;;;4.18;;
77350;SDS011;66420;50.246;14.320;2023-06-10T14:14:49;6.72;;;5.00;;
77350;SDS011;66420;50.246;14.320;2023-06-10T14:17:34;7.18;;;4.93;;
77350;SDS011;66420;50.246;14.320;2023-06-10T14:20:19;8.30;;;4.57;;
77350;SDS011;66420;50.246;14.320;2023-06-10T14:23:03;10.80;;;5.03;;
77350;SDS011;66420;50.246;14.320;2023-06-10T14:25:48;8.23;;;4.63;;
77350;SDS011;66420;50.246;14.320;2023-06-10T14:28:33;7.70;;;4.80;;
77350;SDS011;66420;50.246;14.320;2023-06-10T14:31:17;8.57;;;5.32;;
77350;SDS011;66420;50.246;14.320;2023-06-10T14:34:02;7.10;;;4.90;;
77350;SDS011;66420;50.246;14.320;2023-06-10T14:36:47;6.00;;;4.72;;
77350;SDS011;66420;50.246;14.320;2023-06-10T14:39:31;5.82;;;4.15;;
77350;SDS011;66420;50.246;14.320;2023-06-10T14:42:16;8.55;;;4.80;;
77350;SDS011;66420;50.246;14.320;2023-06-10T14:45:00;7.18;;;5.63;;
77350;SDS011;66420;50.246;14.320;2023-06-10T14:47:45;7.68;;;4.93;;
77350;SDS011;66420;50.246;14.320;2023-06-10T14:50:31;9.32;;;4.38;;
77350;SDS011;66420;50.246;14.320;2023-06-10T14:53:17;5.78;;;4.70;;
77350;SDS011;66420;50.246;14.320;2023-06-10T14:56:02;6.38;;;4.18;;
77350;SDS011;66420;50.246;14.320;2023-06-10T14:58:48;10.27;;;5.55;;
77350;SDS011;66420;50.246;14.320;2023-06-10T15:01:32;6.45;;;4.95;;
77350;SDS011;66420;50.246;14.320;2023-06-10T15:04:17;8.52;;;5.68;;
77350;SDS011;66420;50.246;14.320;2023-06-10T15:07:02;9.30;;;5.53;;
77350;SDS011;66420;50.246;14.320;2023-06-10T15:09:47;9.82;;;4.75;;
77350;SDS011;66420;50.246;14.320;2023-06-10T15:12:31;7.03;;;5.00;;
77350;SDS011;66420;50.246;14.320;2023-06-10T15:15:16;7.60;;;5.03;;
77350;SDS011;66420;50.246;14.320;2023-06-10T15:18:00;5.80;;;4.63;;
77350;SDS011;66420;50.246;14.320;2023-06-10T15:20:45;5.80;;;4.40;;
77350;SDS011;66420;50.246;14.320;2023-06-10T15:23:29;5.95;;;4.85;;
77350;SDS011;66420;50.246;14.320;2023-06-10T15:26:14;6.20;;;4.80;;
77350;SDS011;66420;50.246;14.320;2023-06-10T15:28:59;8.45;;;5.00;;
77350;SDS011;66420;50.246;14.320;2023-06-10T15:31:48;5.53;;;4.75;;
77350;SDS011;66420;50.246;14.320;2023-06-10T15:34:32;6.47;;;5.20;;
77350;SDS011;66420;50.246;14.320;2023-06-10T15:37:17;6.63;;;4.97;;
77350;SDS011;66420;50.246;14.320;2023-06-10T15:40:02;7.60;;;4.70;;
77350;SDS011;66420;50.246;14.320;2023-06-10T15:42:47;8.63;;;5.25;;
77350;SDS011;66420;50.246;14.320;2023-06-10T15:45:31;6.43;;;4.20;;
77350;SDS011;66420;50.246;14.320;2023-06-10T15:48:16;8.50;;;5.75;;
77350;SDS011;66420;50.246;14.320;2023-06-10T15:51:01;6.32;;;5.07;;
77350;SDS011;66420;50.246;14.320;2023-06-10T15:53:46;6.97;;;4.85;;
77350;SDS011;66420;50.246;14.320;2023-06-10T15:56:31;7.50;;;5.28;;
77350;SDS011;66420;50.246;14.320;2023-06-10T15:59:16;11.60;;;5.55;;
77350;SDS011;66420;50.246;14.320;2023-06-10T16:02:02;9.48;;;5.35;;
77350;SDS011;66420;50.246;14.320;2023-06-10T16:04:48;9.88;;;5.82;;
77350;SDS011;66420;50.246;14.320;2023-06-10T16:07:32;6.13;;;5.10;;
77350;SDS011;66420;50.246;14.320;2023-06-10T16:10:17;9.13;;;5.40;;
77350;SDS011;66420;50.246;14.320;2023-06-10T16:13:02;6.40;;;4.68;;
77350;SDS011;66420;50.246;14.320;2023-06-10T16:15:46;8.55;;;4.70;;
77350;SDS011;66420;50.246;14.320;2023-06-10T16:18:31;7.18;;;4.65;;
77350;SDS011;66420;50.246;14.320;2023-06-10T16:21:16;8.82;;;4.32;;